createdAt,value
2023-03-24T00:01:27.000Z,7.45
2023-03-24T00:03:55.152Z,6.63
2023-03-24T00:06:23.602Z,6.04
2023-03-24T00:08:53.316Z,5.97
2023-03-24T00:11:21.665Z,7.59
2023-03-24T00:13:50.944Z,9.17
2023-03-24T00:16:20.205Z,10.01
2023-03-24T00:18:54.024Z,10.01
2023-03-24T00:21:25.141Z,8.65
2023-03-24T00:23:56.043Z,7.45
2023-03-24T00:26:25.755Z,6.62
2023-03-24T00:28:55.619Z,6.02
2023-03-24T00:31:25.806Z,5.58
2023-03-24T00:33:54.640Z,6.48
2023-03-24T00:36:29.122Z,8.22
2023-03-24T00:38:58.054Z,9.50
2023-03-24T00:41:27.586Z,10.32
2023-03-24T00:43:58.858Z,10.46
2023-03-24T00:46:27.963Z,9.12
2023-03-24T00:49:02.892Z,7.72
2023-03-24T00:51:40.730Z,6.64
2023-03-24T00:54:14.475Z,5.83
2023-03-24T00:56:43.785Z,5.65
2023-03-24T00:59:14.104Z,7.14
2023-03-24T01:01:43.618Z,8.74
2023-03-24T01:04:11.736Z,9.86
2023-03-24T01:06:40.108Z,10.36
2023-03-24T01:09:08.430Z,9.43
2023-03-24T01:11:41.723Z,8.19
2023-03-24T01:14:12.192Z,7.21
2023-03-24T01:16:42.338Z,6.49
2023-03-24T01:19:10.737Z,6.02
2023-03-24T01:21:39.545Z,7.00
2023-03-24T01:24:08.457Z,8.72
2023-03-24T01:26:36.532Z,9.85
2023-03-24T01:29:06.198Z,9.84
2023-03-24T01:31:34.766Z,8.57
2023-03-24T01:34:03.749Z,7.46
2023-03-24T01:36:31.850Z,6.61
2023-03-24T01:39:01.543Z,6.33
2023-03-24T01:41:37.281Z,7.77
2023-03-24T01:44:31.691Z,9.34
2023-03-24T01:47:01.686Z,10.45
2023-03-24T01:49:38.268Z,9.72
2023-03-24T01:52:15.971Z,8.21
2023-03-24T01:54:56.664Z,7.07
2023-03-24T01:57:37.491Z,6.15
2023-03-24T02:00:13.565Z,5.99
2023-03-24T02:02:46.635Z,7.67
2023-03-24T02:05:15.704Z,9.11
2023-03-24T02:08:06.771Z,9.76
2023-03-24T02:10:37.441Z,8.48
2023-03-24T02:13:07.774Z,7.24
2023-03-24T02:15:53.480Z,6.30
2023-03-24T02:18:56.563Z,5.49
2023-03-24T02:21:45.920Z,5.57
2023-03-24T02:24:36.081Z,7.42
2023-03-24T02:27:45.754Z,8.76
2023-03-24T02:30:55.993Z,8.97
2023-03-24T02:33:52.051Z,7.32
2023-03-24T02:36:41.567Z,5.90
2023-03-24T02:39:39.846Z,6.53
2023-03-24T02:42:55.461Z,8.32
2023-03-24T02:46:14.514Z,9.48
2023-03-24T02:49:03.828Z,8.09
2023-03-24T02:51:40.604Z,6.70
2023-03-24T02:54:17.174Z,5.78
2023-03-24T02:56:57.433Z,5.06
2023-03-24T02:59:54.076Z,4.49
2023-03-24T03:02:34.154Z,4.65
2023-03-24T03:05:14.058Z,6.81
2023-03-24T03:07:47.219Z,8.53
2023-03-24T03:10:26.364Z,8.80
2023-03-24T03:13:04.803Z,7.37
2023-03-24T03:15:41.759Z,6.10
2023-03-24T03:18:31.163Z,5.17
2023-03-24T03:21:10.398Z,5.15
2023-03-24T03:23:44.965Z,6.88
2023-03-24T03:26:19.896Z,8.23
2023-03-24T03:29:00.351Z,8.94
2023-03-24T03:31:44.898Z,8.57
2023-03-24T03:34:32.117Z,7.17
2023-03-24T03:37:28.251Z,5.90
2023-03-24T03:40:06.601Z,4.89
2023-03-24T03:42:34.468Z,5.59
2023-03-24T03:45:02.324Z,7.10
2023-03-24T03:47:32.636Z,8.16
2023-03-24T03:50:03.897Z,8.93
2023-03-24T03:52:32.357Z,8.07
2023-03-24T03:55:01.170Z,6.73
2023-03-24T03:57:29.562Z,5.68
2023-03-24T03:59:59.031Z,4.86
2023-03-24T04:03:06.485Z,4.25
2023-03-24T04:06:02.037Z,4.70
2023-03-24T04:08:51.517Z,7.07
2023-03-24T04:11:41.206Z,8.62
2023-03-24T04:14:41.208Z,8.82
2023-03-24T04:17:36.349Z,7.31
2023-03-24T04:20:29.039Z,5.96
2023-03-24T04:23:14.632Z,5.07
2023-03-24T04:26:15.100Z,5.05
2023-03-24T04:29:20.694Z,6.77
2023-03-24T04:32:02.454Z,7.80
2023-03-24T04:34:37.891Z,7.52
2023-03-24T04:37:12.697Z,6.11
2023-03-24T04:39:45.521Z,4.91
2023-03-24T04:42:26.704Z,4.08
2023-03-24T04:44:58.090Z,3.42
2023-03-24T04:47:32.333Z,3.52
2023-03-24T04:50:07.768Z,5.25
2023-03-24T04:52:35.770Z,6.73
2023-03-24T04:55:32.311Z,7.49
2023-03-24T04:58:00.587Z,7.39
2023-03-24T05:00:28.823Z,6.18
2023-03-24T05:02:56.667Z,5.00
2023-03-24T05:05:25.010Z,4.14
2023-03-24T05:07:53.596Z,4.37
2023-03-24T05:10:22.179Z,6.14
2023-03-24T05:12:50.902Z,7.60
2023-03-24T05:15:19.371Z,8.49
2023-03-24T05:17:47.825Z,8.49
2023-03-24T05:20:15.731Z,7.21
2023-03-24T05:22:44.071Z,6.05
2023-03-24T05:25:12.042Z,5.19
2023-03-24T05:27:41.075Z,4.44
2023-03-24T05:30:10.241Z,3.80
2023-03-24T05:32:38.233Z,3.64
2023-03-24T05:35:07.683Z,5.24
2023-03-24T05:37:36.302Z,6.85
2023-03-24T05:40:04.801Z,7.87
2023-03-24T05:42:32.832Z,8.53
2023-03-24T05:45:00.807Z,8.82
2023-03-24T05:47:29.126Z,7.53
2023-03-24T05:49:57.154Z,6.15
2023-03-24T05:52:27.340Z,5.14
2023-03-24T05:54:56.532Z,4.40
2023-03-24T05:57:24.749Z,4.25
2023-03-24T05:59:53.241Z,5.59
2023-03-24T06:02:21.563Z,7.24
2023-03-24T06:04:51.741Z,8.42
2023-03-24T06:07:19.626Z,8.67
2023-03-24T06:09:51.170Z,7.38
2023-03-24T06:12:22.023Z,5.99
2023-03-24T06:14:49.919Z,5.02
2023-03-24T06:17:18.190Z,4.47
2023-03-24T06:19:50.043Z,5.69
2023-03-24T06:22:20.285Z,7.39
2023-03-24T06:24:50.229Z,8.51
2023-03-24T06:27:21.666Z,9.19
2023-03-24T06:29:49.423Z,8.24
2023-03-24T06:32:20.588Z,6.89
2023-03-24T06:34:48.695Z,5.90
2023-03-24T06:37:16.510Z,5.12
2023-03-24T06:39:46.147Z,4.88
2023-03-24T06:42:14.618Z,6.18
2023-03-24T06:44:42.336Z,7.50
2023-03-24T06:47:10.287Z,8.55
2023-03-24T06:49:38.121Z,8.87
2023-03-24T06:52:05.913Z,7.68
2023-03-24T06:54:33.750Z,6.34
2023-03-24T06:57:01.554Z,5.39
2023-03-24T06:59:29.408Z,5.14
2023-03-24T07:01:57.288Z,6.70
2023-03-24T07:04:26.095Z,8.29
2023-03-24T07:07:06.631Z,9.34
2023-03-24T07:09:41.982Z,9.45
2023-03-24T07:12:09.802Z,8.21
2023-03-24T07:14:37.566Z,7.06
2023-03-24T07:17:06.010Z,6.23
2023-03-24T07:19:33.781Z,5.58
2023-03-24T07:22:01.573Z,5.56
2023-03-24T07:24:31.625Z,7.26
2023-03-24T07:26:59.892Z,8.87
2023-03-24T07:29:27.737Z,9.88
2023-03-24T07:31:58.937Z,9.85
2023-03-24T07:34:28.669Z,8.62
2023-03-24T07:36:56.705Z,7.54
2023-03-24T07:39:24.561Z,6.72
2023-03-24T07:41:52.324Z,6.05
2023-03-24T07:44:20.264Z,6.04
2023-03-24T07:46:48.229Z,7.72
2023-03-24T07:49:19.788Z,9.27
2023-03-24T07:51:48.445Z,10.23
2023-03-24T07:54:16.329Z,10.43
2023-03-24T07:56:44.620Z,9.25
2023-03-24T07:59:13.548Z,7.94
2023-03-24T08:01:42.315Z,6.95
2023-03-24T08:04:14.310Z,6.22
2023-03-24T08:06:46.338Z,6.20
2023-03-24T08:09:14.857Z,7.92
2023-03-24T08:11:43.085Z,9.49
2023-03-24T08:14:11.230Z,10.33
2023-03-24T08:16:39.221Z,9.47
2023-03-24T08:19:07.914Z,8.16
2023-03-24T08:21:37.118Z,7.12
2023-03-24T08:24:07.510Z,6.73
2023-03-24T08:26:35.597Z,8.13
2023-03-24T08:29:04.142Z,9.41
2023-03-24T08:31:37.529Z,10.21
2023-03-24T08:34:11.771Z,9.99
2023-03-24T08:36:39.641Z,8.60
2023-03-24T08:39:10.229Z,7.48
2023-03-24T08:41:38.387Z,6.71
2023-03-24T08:44:07.703Z,6.75
2023-03-24T08:46:35.861Z,8.43
2023-03-24T08:49:06.388Z,9.78
2023-03-24T08:51:35.071Z,10.55
2023-03-24T08:54:03.903Z,10.60
2023-03-24T08:56:32.144Z,9.34
2023-03-24T08:59:00.148Z,7.99
2023-03-24T09:01:28.632Z,7.19
2023-03-24T09:03:57.554Z,8.32
2023-03-24T09:06:27.430Z,9.83
2023-03-24T09:08:55.251Z,10.85
2023-03-24T09:11:23.565Z,11.14
2023-03-24T09:13:51.568Z,9.87
2023-03-24T09:16:20.136Z,8.56
2023-03-24T09:18:48.045Z,7.65
2023-03-24T09:21:16.890Z,6.99
2023-03-24T09:23:45.002Z,7.07
2023-03-24T09:26:13.226Z,8.67
2023-03-24T09:28:41.796Z,10.01
2023-03-24T09:31:10.857Z,10.88
2023-03-24T09:33:38.696Z,11.14
2023-03-24T09:36:07.581Z,10.09
2023-03-24T09:38:35.834Z,8.92
2023-03-24T09:41:04.517Z,7.97
2023-03-24T09:43:58.912Z,7.23
2023-03-24T09:46:45.177Z,7.41
2023-03-24T09:49:28.438Z,9.32
2023-03-24T09:52:06.358Z,10.70
2023-03-24T09:54:46.891Z,11.14
2023-03-24T09:57:41.086Z,9.99
2023-03-24T10:00:25.105Z,8.75
2023-03-24T10:02:56.060Z,7.88
2023-03-24T10:05:47.978Z,7.27
2023-03-24T10:08:27.302Z,7.40
2023-03-24T10:11:21.345Z,9.44
2023-03-24T10:14:07.115Z,11.15
2023-03-24T10:17:00.241Z,11.51
2023-03-24T10:20:09.722Z,10.18
2023-03-24T10:23:01.550Z,8.72
2023-03-24T10:26:02.878Z,8.49
2023-03-24T10:29:22.235Z,10.48
2023-03-24T10:32:19.895Z,11.76
2023-03-24T10:34:59.770Z,11.82
2023-03-24T10:37:31.508Z,10.43
2023-03-24T10:40:00.844Z,9.19
2023-03-24T10:42:35.405Z,8.23
2023-03-24T10:45:03.863Z,7.60
2023-03-24T10:47:34.108Z,8.69
2023-03-24T10:50:12.791Z,10.51
2023-03-24T10:52:47.545Z,11.68
2023-03-24T10:55:23.198Z,11.00
2023-03-24T10:57:57.699Z,9.62
2023-03-24T11:00:30.093Z,8.55
2023-03-24T11:03:07.230Z,9.14
2023-03-24T11:05:39.340Z,10.73
2023-03-24T11:08:38.302Z,11.27
2023-03-24T11:11:31.894Z,9.80
2023-03-24T11:14:02.831Z,8.44
2023-03-24T11:16:38.862Z,7.58
2023-03-24T11:19:24.802Z,7.44
2023-03-24T11:22:04.118Z,9.37
2023-03-24T11:24:38.425Z,10.93
2023-03-24T11:27:07.173Z,11.38
2023-03-24T11:29:40.220Z,10.25
2023-03-24T11:32:27.398Z,9.08
2023-03-24T11:35:07.307Z,8.13
2023-03-24T11:37:37.160Z,7.42
2023-03-24T11:40:26.310Z,7.82
2023-03-24T11:43:00.344Z,9.82
2023-03-24T11:45:37.492Z,11.14
2023-03-24T11:48:55.434Z,11.27
2023-03-24T11:51:38.497Z,9.64
2023-03-24T11:54:15.165Z,8.51
2023-03-24T11:57:08.373Z,7.74
2023-03-24T11:59:51.963Z,7.83
2023-03-24T12:03:11.456Z,9.76
2023-03-24T12:05:57.295Z,11.52
2023-03-24T12:09:04.316Z,11.93
2023-03-24T12:11:58.354Z,10.53
2023-03-24T12:15:00.538Z,9.29
2023-03-24T12:17:43.462Z,8.40
2023-03-24T12:20:28.268Z,8.12
2023-03-24T12:23:28.449Z,9.83
2023-03-24T12:26:10.755Z,11.55
2023-03-24T12:29:10.098Z,12.02
2023-03-24T12:32:05.345Z,10.68
2023-03-24T12:35:24.060Z,9.40
2023-03-24T12:38:30.015Z,8.40
2023-03-24T12:41:27.049Z,8.24
2023-03-24T12:44:45.632Z,10.26
2023-03-24T12:47:37.260Z,11.82
2023-03-24T12:50:26.825Z,12.25
2023-03-24T12:53:23.403Z,10.77
2023-03-24T12:56:11.323Z,9.32
2023-03-24T12:58:44.749Z,8.33
2023-03-24T13:01:50.274Z,8.74
2023-03-24T13:04:29.531Z,10.83
2023-03-24T13:07:06.718Z,11.93
2023-03-24T13:09:56.019Z,12.06
2023-03-24T13:12:37.322Z,10.69
2023-03-24T13:15:36.900Z,9.47
2023-03-24T13:18:12.525Z,8.46
2023-03-24T13:20:45.974Z,8.32
2023-03-24T13:23:40.977Z,10.06
2023-03-24T13:26:54.509Z,11.66
2023-03-24T13:29:48.517Z,11.80
2023-03-24T13:32:33.671Z,10.20
2023-03-24T13:35:53.416Z,8.96
2023-03-24T13:38:37.479Z,7.90
2023-03-24T13:41:07.284Z,7.98
2023-03-24T13:43:36.726Z,9.77
2023-03-24T13:46:10.733Z,11.25
2023-03-24T13:48:46.017Z,12.28
2023-03-24T13:51:34.361Z,12.11
2023-03-24T13:54:23.804Z,10.69
2023-03-24T13:57:14.409Z,9.44
2023-03-24T14:00:07.957Z,8.67
2023-03-24T14:02:52.807Z,9.91
2023-03-24T14:05:26.444Z,11.59
2023-03-24T14:08:03.422Z,12.16
2023-03-24T14:10:49.900Z,11.04
2023-03-24T14:13:21.728Z,9.67
2023-03-24T14:15:57.164Z,8.81
2023-03-24T14:18:26.083Z,8.17
2023-03-24T14:20:57.214Z,8.18
2023-03-24T14:23:52.607Z,9.90
2023-03-24T14:26:20.480Z,11.56
2023-03-24T14:28:51.699Z,12.48
2023-03-24T14:31:32.434Z,12.63
2023-03-24T14:34:05.759Z,11.25
2023-03-24T14:36:40.191Z,10.01
2023-03-24T14:39:25.787Z,9.13
2023-03-24T14:41:56.331Z,8.46
2023-03-24T14:44:49.600Z,8.46
2023-03-24T14:47:26.500Z,10.43
2023-03-24T14:50:00.281Z,11.85
2023-03-24T14:52:39.070Z,12.37
2023-03-24T14:55:19.561Z,11.15
2023-03-24T14:57:55.013Z,9.74
2023-03-24T15:00:28.753Z,10.09
2023-03-24T15:03:41.521Z,11.54
2023-03-24T15:06:17.087Z,12.33
2023-03-24T15:09:01.364Z,11.28
2023-03-24T15:11:37.081Z,9.87
2023-03-24T15:14:22.199Z,8.92
2023-03-24T15:16:58.668Z,8.89
2023-03-24T15:19:30.587Z,10.67
2023-03-24T15:22:03.999Z,12.13
2023-03-24T15:24:38.240Z,12.52
2023-03-24T15:27:06.655Z,11.35
2023-03-24T15:29:37.002Z,10.16
2023-03-24T15:32:06.836Z,9.25
2023-03-24T15:34:34.553Z,9.03
2023-03-24T15:37:19.537Z,10.52
2023-03-24T15:40:01.885Z,12.03
2023-03-24T15:42:45.140Z,12.43
2023-03-24T15:45:27.652Z,11.25
2023-03-24T15:47:57.808Z,9.98
2023-03-24T15:50:41.051Z,9.14
2023-03-24T15:53:15.011Z,9.40
2023-03-24T15:55:43.966Z,11.07
2023-03-24T15:58:28.994Z,12.26
2023-03-24T16:01:00.534Z,12.65
2023-03-24T16:03:32.563Z,11.56
2023-03-24T16:06:00.688Z,10.49
2023-03-24T16:08:39.312Z,9.69
2023-03-24T16:11:13.976Z,9.50
2023-03-24T16:13:45.278Z,11.06
2023-03-24T16:16:13.041Z,12.36
2023-03-24T16:18:44.646Z,12.78
2023-03-24T16:21:22.727Z,11.64
2023-03-24T16:23:54.607Z,10.40
2023-03-24T16:26:25.947Z,9.53
2023-03-24T16:28:59.528Z,8.88
2023-03-24T16:31:35.066Z,8.93
2023-03-24T16:34:02.881Z,10.77
2023-03-24T16:36:30.755Z,12.23
2023-03-24T16:39:01.670Z,12.67
2023-03-24T16:41:30.334Z,11.56
2023-03-24T16:43:58.077Z,10.33
2023-03-24T16:46:26.284Z,9.41
2023-03-24T16:48:55.560Z,8.68
2023-03-24T16:51:23.470Z,8.56
2023-03-24T16:53:52.559Z,10.26
2023-03-24T16:56:23.184Z,11.82
2023-03-24T16:58:53.384Z,12.65
2023-03-24T17:01:38.955Z,12.07
2023-03-24T17:04:19.899Z,10.74
2023-03-24T17:06:54.367Z,9.74
2023-03-24T17:09:22.928Z,9.04
2023-03-24T17:11:58.647Z,8.49
2023-03-24T17:14:26.918Z,8.58
2023-03-24T17:16:54.960Z,10.41
2023-03-24T17:19:24.902Z,11.92
2023-03-24T17:22:04.107Z,12.36
2023-03-24T17:24:36.840Z,11.08
2023-03-24T17:27:14.066Z,9.88
2023-03-24T17:29:41.842Z,8.99
2023-03-24T17:32:11.979Z,8.38
2023-03-24T17:34:45.823Z,8.37
2023-03-24T17:37:13.743Z,10.20
2023-03-24T17:39:41.608Z,11.77
2023-03-24T17:42:09.380Z,12.28
2023-03-24T17:44:37.180Z,11.28
2023-03-24T17:47:05.612Z,10.23
2023-03-24T17:49:34.076Z,9.46
2023-03-24T17:52:01.915Z,8.88
2023-03-24T17:54:30.592Z,8.39
2023-03-24T17:56:58.410Z,8.44
2023-03-24T17:59:27.148Z,10.22
2023-03-24T18:01:55.741Z,11.84
2023-03-24T18:04:24.014Z,12.39
2023-03-24T18:06:51.953Z,11.36
2023-03-24T18:09:19.720Z,10.24
2023-03-24T18:11:48.225Z,9.40
2023-03-24T18:14:16.508Z,8.80
2023-03-24T18:16:44.922Z,8.33
2023-03-24T18:19:12.948Z,8.45
2023-03-24T18:21:40.981Z,10.28
2023-03-24T18:24:08.992Z,11.88
2023-03-24T18:26:36.967Z,12.17
2023-03-24T18:29:06.165Z,10.94
2023-03-24T18:31:34.507Z,9.77
2023-03-24T18:34:04.154Z,8.96
2023-03-24T18:36:32.269Z,8.39
2023-03-24T18:39:07.318Z,8.32
2023-03-24T18:41:37.645Z,10.10
2023-03-24T18:44:13.850Z,11.71
2023-03-24T18:46:44.103Z,11.83
2023-03-24T18:49:14.710Z,10.57
2023-03-24T18:51:43.634Z,9.45
2023-03-24T18:54:13.439Z,8.59
2023-03-24T18:56:42.003Z,7.94
2023-03-24T18:59:11.822Z,7.96
2023-03-24T19:01:39.679Z,9.73
2023-03-24T19:04:09.366Z,11.27
2023-03-24T19:06:37.260Z,11.81
2023-03-24T19:09:05.604Z,10.75
2023-03-24T19:11:33.501Z,9.52
2023-03-24T19:14:02.209Z,8.51
2023-03-24T19:16:30.395Z,7.71
2023-03-24T19:18:58.694Z,7.52
2023-03-24T19:21:27.744Z,9.16
2023-03-24T19:23:58.053Z,10.71
2023-03-24T19:26:26.094Z,11.26
2023-03-24T19:28:54.317Z,10.37
2023-03-24T19:31:22.295Z,9.14
2023-03-24T19:33:52.247Z,8.16
2023-03-24T19:36:20.047Z,7.47
2023-03-24T19:38:47.899Z,7.48
2023-03-24T19:41:16.482Z,9.28
2023-03-24T19:43:44.345Z,10.90
2023-03-24T19:46:12.304Z,11.89
2023-03-24T19:48:40.674Z,11.55
2023-03-24T19:51:08.519Z,10.25
2023-03-24T19:53:36.528Z,9.15
2023-03-24T19:56:05.133Z,8.30
2023-03-24T19:58:32.996Z,8.05
2023-03-24T20:01:00.911Z,9.66
2023-03-24T20:03:29.408Z,11.21
2023-03-24T20:06:09.214Z,11.80
2023-03-24T20:08:40.330Z,10.66
2023-03-24T20:11:11.939Z,9.44
2023-03-24T20:13:39.953Z,8.50
2023-03-24T20:16:08.681Z,7.78
2023-03-24T20:18:39.066Z,7.22
2023-03-24T20:21:09.874Z,7.34
2023-03-24T20:23:38.990Z,9.28
2023-03-24T20:26:13.553Z,10.91
2023-03-24T20:28:43.726Z,11.43
2023-03-24T20:31:17.340Z,10.29
2023-03-24T20:33:51.068Z,9.01
2023-03-24T20:36:19.004Z,8.01
2023-03-24T20:38:46.877Z,7.32
2023-03-24T20:41:14.793Z,7.20
2023-03-24T20:43:42.864Z,8.93
2023-03-24T20:46:14.551Z,10.58
2023-03-24T20:48:42.916Z,11.16
2023-03-24T20:51:11.080Z,10.15
2023-03-24T20:53:40.685Z,9.06
2023-03-24T20:56:13.322Z,8.21
2023-03-24T20:58:44.968Z,7.56
2023-03-24T21:01:20.742Z,7.05
2023-03-24T21:03:53.383Z,7.18
2023-03-24T21:06:22.248Z,9.10
2023-03-24T21:08:50.083Z,10.67
2023-03-24T21:11:17.804Z,11.23
2023-03-24T21:13:45.892Z,10.17
2023-03-24T21:16:14.074Z,9.03
2023-03-24T21:18:42.804Z,8.19
2023-03-24T21:21:12.864Z,7.56
2023-03-24T21:23:43.211Z,7.10
2023-03-24T21:26:17.524Z,7.27
2023-03-24T21:28:45.921Z,9.26
2023-03-24T21:31:23.256Z,10.86
2023-03-24T21:33:52.431Z,11.39
2023-03-24T21:36:22.164Z,10.34
2023-03-24T21:38:52.151Z,9.28
2023-03-24T21:41:21.664Z,8.52
2023-03-24T21:43:54.638Z,7.93
2023-03-24T21:46:25.803Z,7.41
2023-03-24T21:48:59.686Z,6.89
2023-03-24T21:51:34.437Z,6.87
2023-03-24T21:54:09.767Z,8.71
2023-03-24T21:56:38.192Z,10.24
2023-03-24T21:59:06.414Z,11.17
2023-03-24T22:01:36.136Z,10.91
2023-03-24T22:04:05.858Z,9.69
2023-03-24T22:06:38.326Z,8.70
2023-03-24T22:09:08.247Z,7.99
2023-03-24T22:11:42.930Z,7.48
2023-03-24T22:14:13.064Z,7.03
2023-03-24T22:16:41.112Z,7.15
2023-03-24T22:19:09.409Z,9.00
2023-03-24T22:21:39.522Z,10.63
2023-03-24T22:24:08.134Z,11.13
2023-03-24T22:26:36.179Z,10.04
2023-03-24T22:29:03.958Z,8.89
2023-03-24T22:31:31.791Z,7.98
2023-03-24T22:33:59.770Z,7.26
2023-03-24T22:36:27.643Z,6.70
2023-03-24T22:38:55.646Z,6.77
2023-03-24T22:41:23.514Z,8.61
2023-03-24T22:43:51.706Z,10.30
2023-03-24T22:46:19.544Z,10.94
2023-03-24T22:48:47.592Z,9.95
2023-03-24T22:51:19.338Z,8.89
2023-03-24T22:53:48.840Z,8.08
2023-03-24T22:56:17.233Z,7.47
2023-03-24T22:58:45.410Z,6.97
2023-03-24T23:01:13.246Z,6.53
2023-03-24T23:03:41.504Z,6.58
2023-03-24T23:06:11.933Z,8.37
2023-03-24T23:08:40.508Z,10.03
2023-03-24T23:11:12.139Z,10.72
2023-03-24T23:13:40.970Z,9.75
2023-03-24T23:16:09.223Z,8.62
2023-03-24T23:18:38.916Z,7.83
2023-03-24T23:21:11.621Z,7.22
2023-03-24T23:23:41.834Z,6.73
2023-03-24T23:26:26.033Z,6.85
2023-03-24T23:28:54.969Z,8.96
2023-03-24T23:31:29.010Z,10.58
2023-03-24T23:33:58.038Z,11.12
2023-03-24T23:36:28.487Z,10.09
2023-03-24T23:38:56.678Z,9.01
2023-03-24T23:41:25.041Z,8.24
2023-03-24T23:43:53.423Z,7.65
2023-03-24T23:46:23.981Z,7.18
2023-03-24T23:48:52.205Z,7.20
2023-03-24T23:51:20.652Z,9.01
2023-03-24T23:53:48.445Z,10.67
2023-03-24T23:56:16.405Z,11.05
2023-03-24T23:58:44.255Z,9.82
